sensor_id;sensor_type;location;lat;lon;timestamp;temperature;humidity
3298;DHT22;1661;53.572;10.174;2022-08-26T00:02:16;22.70;82.50
3298;DHT22;1661;53.572;10.174;2022-08-26T00:04:42;22.70;83.20
3298;DHT22;1661;53.572;10.174;2022-08-26T00:07:09;22.60;82.70
3298;DHT22;1661;53.572;10.174;2022-08-26T00:09:36;22.60;83.10
3298;DHT22;1661;53.572;10.174;2022-08-26T00:12:03;22.60;83.10
3298;DHT22;1661;53.572;10.174;2022-08-26T00:14:30;22.60;83.00
3298;DHT22;1661;53.572;10.174;2022-08-26T00:16:58;22.60;83.40
3298;DHT22;1661;53.572;10.174;2022-08-26T00:19:31;22.60;83.50
3298;DHT22;1661;53.572;10.174;2022-08-26T00:21:57;22.60;83.10
3298;DHT22;1661;53.572;10.174;2022-08-26T00:24:24;22.60;83.20
3298;DHT22;1661;53.572;10.174;2022-08-26T00:26:51;22.60;83.50
3298;DHT22;1661;53.572;10.174;2022-08-26T00:29:18;22.50;83.40
3298;DHT22;1661;53.572;10.174;2022-08-26T00:31:45;22.50;83.60
3298;DHT22;1661;53.572;10.174;2022-08-26T00:34:13;22.50;83.80
3298;DHT22;1661;53.572;10.174;2022-08-26T00:36:41;22.40;84.50
3298;DHT22;1661;53.572;10.174;2022-08-26T00:39:08;22.40;84.40
3298;DHT22;1661;53.572;10.174;2022-08-26T00:41:38;22.40;84.70
3298;DHT22;1661;53.572;10.174;2022-08-26T00:44:05;22.40;84.40
3298;DHT22;1661;53.572;10.174;2022-08-26T00:46:34;22.40;84.60
3298;DHT22;1661;53.572;10.174;2022-08-26T00:49:06;22.40;83.90
3298;DHT22;1661;53.572;10.174;2022-08-26T00:51:36;22.40;83.40
3298;DHT22;1661;53.572;10.174;2022-08-26T00:54:07;22.50;84.00
3298;DHT22;1661;53.572;10.174;2022-08-26T00:56:39;22.50;84.00
3298;DHT22;1661;53.572;10.174;2022-08-26T00:59:09;22.50;84.50
3298;DHT22;1661;53.572;10.174;2022-08-26T01:01:38;22.40;84.70
3298;DHT22;1661;53.572;10.174;2022-08-26T01:04:07;22.40;84.60
3298;DHT22;1661;53.572;10.174;2022-08-26T01:06:37;22.40;84.40
3298;DHT22;1661;53.572;10.174;2022-08-26T01:09:04;22.40;84.30
3298;DHT22;1661;53.572;10.174;2022-08-26T01:11:32;22.40;84.70
3298;DHT22;1661;53.572;10.174;2022-08-26T01:14:01;22.40;84.70
3298;DHT22;1661;53.572;10.174;2022-08-26T01:16:30;22.40;84.40
3298;DHT22;1661;53.572;10.174;2022-08-26T01:19:00;22.40;84.20
3298;DHT22;1661;53.572;10.174;2022-08-26T01:21:31;22.40;84.00
3298;DHT22;1661;53.572;10.174;2022-08-26T01:24:03;22.50;82.90
3298;DHT22;1661;53.572;10.174;2022-08-26T01:26:33;22.40;83.10
3298;DHT22;1661;53.572;10.174;2022-08-26T01:29:04;22.50;82.60
3298;DHT22;1661;53.572;10.174;2022-08-26T01:31:34;22.50;82.60
3298;DHT22;1661;53.572;10.174;2022-08-26T01:34:05;22.40;83.70
3298;DHT22;1661;53.572;10.174;2022-08-26T01:36:36;22.40;84.70
3298;DHT22;1661;53.572;10.174;2022-08-26T01:39:05;22.30;84.90
3298;DHT22;1661;53.572;10.174;2022-08-26T01:41:33;22.30;84.70
3298;DHT22;1661;53.572;10.174;2022-08-26T01:44:00;22.20;84.50
3298;DHT22;1661;53.572;10.174;2022-08-26T01:46:29;22.20;85.10
3298;DHT22;1661;53.572;10.174;2022-08-26T01:48:58;22.20;85.30
3298;DHT22;1661;53.572;10.174;2022-08-26T01:51:26;22.20;85.10
3298;DHT22;1661;53.572;10.174;2022-08-26T01:53:54;22.10;85.10
3298;DHT22;1661;53.572;10.174;2022-08-26T01:56:23;22.10;85.40
3298;DHT22;1661;53.572;10.174;2022-08-26T01:58:51;22.10;84.70
3298;DHT22;1661;53.572;10.174;2022-08-26T02:01:20;22.10;84.30
3298;DHT22;1661;53.572;10.174;2022-08-26T02:03:53;22.10;84.10
3298;DHT22;1661;53.572;10.174;2022-08-26T02:06:23;22.10;84.40
3298;DHT22;1661;53.572;10.174;2022-08-26T02:08:53;22.10;84.90
3298;DHT22;1661;53.572;10.174;2022-08-26T02:11:20;22.00;85.30
3298;DHT22;1661;53.572;10.174;2022-08-26T02:13:52;22.00;85.70
3298;DHT22;1661;53.572;10.174;2022-08-26T02:16:23;22.00;86.20
3298;DHT22;1661;53.572;10.174;2022-08-26T02:18:52;21.90;86.30
3298;DHT22;1661;53.572;10.174;2022-08-26T02:21:20;21.90;86.30
3298;DHT22;1661;53.572;10.174;2022-08-26T02:23:47;21.80;86.20
3298;DHT22;1661;53.572;10.174;2022-08-26T02:26:16;21.80;86.10
3298;DHT22;1661;53.572;10.174;2022-08-26T02:28:47;21.80;85.20
3298;DHT22;1661;53.572;10.174;2022-08-26T02:31:16;21.80;84.80
3298;DHT22;1661;53.572;10.174;2022-08-26T02:33:43;21.80;84.80
3298;DHT22;1661;53.572;10.174;2022-08-26T02:36:10;21.80;84.50
3298;DHT22;1661;53.572;10.174;2022-08-26T02:38:36;21.80;84.50
3298;DHT22;1661;53.572;10.174;2022-08-26T02:41:03;21.80;84.60
3298;DHT22;1661;53.572;10.174;2022-08-26T02:43:30;21.80;84.80
3298;DHT22;1661;53.572;10.174;2022-08-26T02:45:57;21.80;84.60
3298;DHT22;1661;53.572;10.174;2022-08-26T02:48:25;21.70;84.80
3298;DHT22;1661;53.572;10.174;2022-08-26T02:50:51;21.70;85.00
3298;DHT22;1661;53.572;10.174;2022-08-26T02:53:18;21.70;84.90
3298;DHT22;1661;53.572;10.174;2022-08-26T02:55:45;21.70;84.70
3298;DHT22;1661;53.572;10.174;2022-08-26T02:58:14;21.70;85.40
3298;DHT22;1661;53.572;10.174;2022-08-26T03:00:41;21.60;85.80
3298;DHT22;1661;53.572;10.174;2022-08-26T03:03:08;21.60;86.70
3298;DHT22;1661;53.572;10.174;2022-08-26T03:05:36;21.50;87.20
3298;DHT22;1661;53.572;10.174;2022-08-26T03:08:03;21.50;87.40
3298;DHT22;1661;53.572;10.174;2022-08-26T03:10:29;21.40;87.30
3298;DHT22;1661;53.572;10.174;2022-08-26T03:12:57;21.40;87.60
3298;DHT22;1661;53.572;10.174;2022-08-26T03:15:25;21.40;87.50
3298;DHT22;1661;53.572;10.174;2022-08-26T03:17:52;21.40;87.20
3298;DHT22;1661;53.572;10.174;2022-08-26T03:20:18;21.30;87.10
3298;DHT22;1661;53.572;10.174;2022-08-26T03:22:46;21.30;87.30
3298;DHT22;1661;53.572;10.174;2022-08-26T03:25:16;21.30;86.80
3298;DHT22;1661;53.572;10.174;2022-08-26T03:27:43;21.30;86.50
3298;DHT22;1661;53.572;10.174;2022-08-26T03:30:11;21.30;85.90
3298;DHT22;1661;53.572;10.174;2022-08-26T03:32:56;21.30;85.10
3298;DHT22;1661;53.572;10.174;2022-08-26T03:35:24;21.40;85.40
3298;DHT22;1661;53.572;10.174;2022-08-26T03:37:52;21.40;84.80
3298;DHT22;1661;53.572;10.174;2022-08-26T03:40:20;21.40;85.20
3298;DHT22;1661;53.572;10.174;2022-08-26T03:42:47;21.40;85.30
3298;DHT22;1661;53.572;10.174;2022-08-26T03:45:15;21.40;85.90
3298;DHT22;1661;53.572;10.174;2022-08-26T03:47:43;21.40;86.50
3298;DHT22;1661;53.572;10.174;2022-08-26T03:50:14;21.40;86.70
3298;DHT22;1661;53.572;10.174;2022-08-26T03:52:41;21.40;86.80
3298;DHT22;1661;53.572;10.174;2022-08-26T03:55:09;21.40;86.80
3298;DHT22;1661;53.572;10.174;2022-08-26T03:57:36;21.40;86.30
3298;DHT22;1661;53.572;10.174;2022-08-26T04:00:05;21.30;87.10
3298;DHT22;1661;53.572;10.174;2022-08-26T04:02:33;21.30;87.00
3298;DHT22;1661;53.572;10.174;2022-08-26T04:05:00;21.30;87.00
3298;DHT22;1661;53.572;10.174;2022-08-26T04:07:27;21.30;86.70
3298;DHT22;1661;53.572;10.174;2022-08-26T04:09:54;21.30;86.70
3298;DHT22;1661;53.572;10.174;2022-08-26T04:12:22;21.30;86.80
3298;DHT22;1661;53.572;10.174;2022-08-26T04:14:49;21.30;86.10
3298;DHT22;1661;53.572;10.174;2022-08-26T04:17:17;21.30;85.60
3298;DHT22;1661;53.572;10.174;2022-08-26T04:19:43;21.30;85.40
3298;DHT22;1661;53.572;10.174;2022-08-26T04:22:10;21.30;85.70
3298;DHT22;1661;53.572;10.174;2022-08-26T04:24:37;21.30;86.30
3298;DHT22;1661;53.572;10.174;2022-08-26T04:27:05;21.30;85.80
3298;DHT22;1661;53.572;10.174;2022-08-26T04:29:33;21.30;85.90
3298;DHT22;1661;53.572;10.174;2022-08-26T04:31:59;21.30;86.30
3298;DHT22;1661;53.572;10.174;2022-08-26T04:34:27;21.30;86.00
3298;DHT22;1661;53.572;10.174;2022-08-26T04:36:54;21.30;86.60
3298;DHT22;1661;53.572;10.174;2022-08-26T04:39:22;21.30;86.70
3298;DHT22;1661;53.572;10.174;2022-08-26T04:41:49;21.20;87.00
3298;DHT22;1661;53.572;10.174;2022-08-26T04:44:19;21.20;87.40
3298;DHT22;1661;53.572;10.174;2022-08-26T04:46:47;21.20;87.30
3298;DHT22;1661;53.572;10.174;2022-08-26T04:49:14;21.20;88.10
3298;DHT22;1661;53.572;10.174;2022-08-26T04:51:41;21.20;88.00
3298;DHT22;1661;53.572;10.174;2022-08-26T04:54:08;21.20;88.40
3298;DHT22;1661;53.572;10.174;2022-08-26T04:56:37;21.20;88.30
3298;DHT22;1661;53.572;10.174;2022-08-26T04:59:06;21.10;88.30
3298;DHT22;1661;53.572;10.174;2022-08-26T05:01:34;21.10;88.30
3298;DHT22;1661;53.572;10.174;2022-08-26T05:04:02;21.10;89.00
3298;DHT22;1661;53.572;10.174;2022-08-26T05:06:29;21.10;89.30
3298;DHT22;1661;53.572;10.174;2022-08-26T05:08:56;21.10;89.40
3298;DHT22;1661;53.572;10.174;2022-08-26T05:11:23;21.10;89.40
3298;DHT22;1661;53.572;10.174;2022-08-26T05:13:50;21.10;89.70
3298;DHT22;1661;53.572;10.174;2022-08-26T05:16:16;21.10;89.30
3298;DHT22;1661;53.572;10.174;2022-08-26T05:18:44;21.20;89.30
3298;DHT22;1661;53.572;10.174;2022-08-26T05:21:18;21.20;89.10
3298;DHT22;1661;53.572;10.174;2022-08-26T05:23:45;21.30;89.30
3298;DHT22;1661;53.572;10.174;2022-08-26T05:26:12;21.30;89.30
3298;DHT22;1661;53.572;10.174;2022-08-26T05:28:39;21.30;89.20
3298;DHT22;1661;53.572;10.174;2022-08-26T05:31:14;21.30;89.30
3298;DHT22;1661;53.572;10.174;2022-08-26T05:33:42;21.30;89.60
3298;DHT22;1661;53.572;10.174;2022-08-26T05:36:11;21.30;89.80
3298;DHT22;1661;53.572;10.174;2022-08-26T05:38:39;21.30;89.70
3298;DHT22;1661;53.572;10.174;2022-08-26T05:41:13;21.40;89.70
3298;DHT22;1661;53.572;10.174;2022-08-26T05:43:41;21.40;90.00
3298;DHT22;1661;53.572;10.174;2022-08-26T05:46:08;21.40;90.00
3298;DHT22;1661;53.572;10.174;2022-08-26T05:48:35;21.50;89.80
3298;DHT22;1661;53.572;10.174;2022-08-26T05:51:03;21.50;89.60
3298;DHT22;1661;53.572;10.174;2022-08-26T05:53:30;21.60;89.40
3298;DHT22;1661;53.572;10.174;2022-08-26T05:55:59;21.60;89.30
3298;DHT22;1661;53.572;10.174;2022-08-26T05:58:26;21.60;89.10
3298;DHT22;1661;53.572;10.174;2022-08-26T06:00:58;21.70;89.10
3298;DHT22;1661;53.572;10.174;2022-08-26T06:03:26;21.80;88.80
3298;DHT22;1661;53.572;10.174;2022-08-26T06:05:53;21.90;88.20
3298;DHT22;1661;53.572;10.174;2022-08-26T06:08:20;22.00;88.10
3298;DHT22;1661;53.572;10.174;2022-08-26T06:10:49;22.00;87.30
3298;DHT22;1661;53.572;10.174;2022-08-26T06:13:19;22.10;87.60
3298;DHT22;1661;53.572;10.174;2022-08-26T06:15:49;22.10;87.60
3298;DHT22;1661;53.572;10.174;2022-08-26T06:18:18;22.10;87.80
3298;DHT22;1661;53.572;10.174;2022-08-26T06:20:46;22.20;87.80
3298;DHT22;1661;53.572;10.174;2022-08-26T06:23:15;22.20;88.00
3298;DHT22;1661;53.572;10.174;2022-08-26T06:26:00;22.20;88.00
3298;DHT22;1661;53.572;10.174;2022-08-26T06:28:29;22.30;87.90
3298;DHT22;1661;53.572;10.174;2022-08-26T06:30:55;22.40;87.50
3298;DHT22;1661;53.572;10.174;2022-08-26T06:33:23;22.40;87.30
3298;DHT22;1661;53.572;10.174;2022-08-26T06:35:50;22.50;87.30
3298;DHT22;1661;53.572;10.174;2022-08-26T06:38:18;22.60;86.90
3298;DHT22;1661;53.572;10.174;2022-08-26T06:40:46;22.70;86.30
3298;DHT22;1661;53.572;10.174;2022-08-26T06:43:14;22.80;86.30
3298;DHT22;1661;53.572;10.174;2022-08-26T06:45:43;22.90;85.90
3298;DHT22;1661;53.572;10.174;2022-08-26T06:48:10;22.90;85.60
3298;DHT22;1661;53.572;10.174;2022-08-26T06:50:37;23.00;85.50
3298;DHT22;1661;53.572;10.174;2022-08-26T06:53:04;23.20;85.60
3298;DHT22;1661;53.572;10.174;2022-08-26T06:55:30;23.40;85.30
3298;DHT22;1661;53.572;10.174;2022-08-26T06:57:57;23.50;84.40
3298;DHT22;1661;53.572;10.174;2022-08-26T07:00:24;23.70;83.60
3298;DHT22;1661;53.572;10.174;2022-08-26T07:02:52;23.80;83.10
3298;DHT22;1661;53.572;10.174;2022-08-26T07:05:19;23.90;82.80
3298;DHT22;1661;53.572;10.174;2022-08-26T07:07:46;24.00;82.20
3298;DHT22;1661;53.572;10.174;2022-08-26T07:10:12;24.20;81.50
3298;DHT22;1661;53.572;10.174;2022-08-26T07:12:39;24.20;81.10
3298;DHT22;1661;53.572;10.174;2022-08-26T07:15:06;24.40;81.20
3298;DHT22;1661;53.572;10.174;2022-08-26T07:17:33;24.60;80.80
3298;DHT22;1661;53.572;10.174;2022-08-26T07:20:02;24.80;80.00
3298;DHT22;1661;53.572;10.174;2022-08-26T07:22:31;24.90;79.20
3298;DHT22;1661;53.572;10.174;2022-08-26T07:24:58;25.10;78.70
3298;DHT22;1661;53.572;10.174;2022-08-26T07:27:25;25.30;77.50
3298;DHT22;1661;53.572;10.174;2022-08-26T07:29:55;25.40;76.70
3298;DHT22;1661;53.572;10.174;2022-08-26T07:32:22;25.60;76.20
3298;DHT22;1661;53.572;10.174;2022-08-26T07:34:49;25.60;75.70
3298;DHT22;1661;53.572;10.174;2022-08-26T07:37:18;25.70;75.90
3298;DHT22;1661;53.572;10.174;2022-08-26T07:39:46;25.90;75.30
3298;DHT22;1661;53.572;10.174;2022-08-26T07:45:34;26.20;74.40
3298;DHT22;1661;53.572;10.174;2022-08-26T07:48:01;26.30;73.60
3298;DHT22;1661;53.572;10.174;2022-08-26T07:50:28;26.30;73.60
3298;DHT22;1661;53.572;10.174;2022-08-26T07:52:56;26.40;74.10
3298;DHT22;1661;53.572;10.174;2022-08-26T07:55:23;26.60;73.50
3298;DHT22;1661;53.572;10.174;2022-08-26T07:57:50;26.80;73.30
3298;DHT22;1661;53.572;10.174;2022-08-26T08:00:21;26.90;72.60
3298;DHT22;1661;53.572;10.174;2022-08-26T08:02:48;27.00;71.70
3298;DHT22;1661;53.572;10.174;2022-08-26T08:05:18;27.20;71.00
3298;DHT22;1661;53.572;10.174;2022-08-26T08:07:45;27.30;70.40
3298;DHT22;1661;53.572;10.174;2022-08-26T08:10:18;27.50;70.20
3298;DHT22;1661;53.572;10.174;2022-08-26T08:12:45;27.70;69.10
3298;DHT22;1661;53.572;10.174;2022-08-26T08:15:13;27.80;69.20
3298;DHT22;1661;53.572;10.174;2022-08-26T08:17:40;27.90;68.80
3298;DHT22;1661;53.572;10.174;2022-08-26T08:20:09;28.10;67.80
3298;DHT22;1661;53.572;10.174;2022-08-26T08:22:36;28.20;67.70
3298;DHT22;1661;53.572;10.174;2022-08-26T08:25:03;28.40;67.20
3298;DHT22;1661;53.572;10.174;2022-08-26T08:27:33;28.50;67.20
3298;DHT22;1661;53.572;10.174;2022-08-26T08:30:00;28.60;66.60
3298;DHT22;1661;53.572;10.174;2022-08-26T08:32:28;28.80;66.00
3298;DHT22;1661;53.572;10.174;2022-08-26T08:34:55;29.00;65.40
3298;DHT22;1661;53.572;10.174;2022-08-26T08:37:23;29.20;65.10
3298;DHT22;1661;53.572;10.174;2022-08-26T08:39:50;29.30;64.80
3298;DHT22;1661;53.572;10.174;2022-08-26T08:42:33;29.50;64.60
3298;DHT22;1661;53.572;10.174;2022-08-26T08:45:05;29.70;63.80
3298;DHT22;1661;53.572;10.174;2022-08-26T08:47:35;29.80;62.80
3298;DHT22;1661;53.572;10.174;2022-08-26T08:50:05;29.90;62.50
3298;DHT22;1661;53.572;10.174;2022-08-26T08:52:35;29.90;62.50
3298;DHT22;1661;53.572;10.174;2022-08-26T08:55:04;30.10;62.90
3298;DHT22;1661;53.572;10.174;2022-08-26T08:57:41;30.20;62.10
3298;DHT22;1661;53.572;10.174;2022-08-26T09:00:15;30.40;61.70
3298;DHT22;1661;53.572;10.174;2022-08-26T09:02:51;30.60;61.40
3298;DHT22;1661;53.572;10.174;2022-08-26T09:05:21;30.80;61.00
3298;DHT22;1661;53.572;10.174;2022-08-26T09:07:52;31.00;59.50
3298;DHT22;1661;53.572;10.174;2022-08-26T09:10:34;31.10;59.50
3298;DHT22;1661;53.572;10.174;2022-08-26T09:13:05;31.20;59.10
3298;DHT22;1661;53.572;10.174;2022-08-26T09:15:41;31.30;59.30
3298;DHT22;1661;53.572;10.174;2022-08-26T09:18:23;31.60;58.90
3298;DHT22;1661;53.572;10.174;2022-08-26T09:20:55;31.90;58.60
3298;DHT22;1661;53.572;10.174;2022-08-26T09:23:24;32.00;58.20
3298;DHT22;1661;53.572;10.174;2022-08-26T09:25:53;32.00;58.40
3298;DHT22;1661;53.572;10.174;2022-08-26T09:28:23;32.30;58.10
3298;DHT22;1661;53.572;10.174;2022-08-26T09:31:00;32.40;56.70
3298;DHT22;1661;53.572;10.174;2022-08-26T09:33:30;32.50;57.00
3298;DHT22;1661;53.572;10.174;2022-08-26T09:36:16;32.50;55.90
3298;DHT22;1661;53.572;10.174;2022-08-26T09:38:48;32.40;56.60
3298;DHT22;1661;53.572;10.174;2022-08-26T09:41:24;32.30;56.50
3298;DHT22;1661;53.572;10.174;2022-08-26T09:44:09;31.90;57.60
3298;DHT22;1661;53.572;10.174;2022-08-26T09:46:37;32.00;58.20
3298;DHT22;1661;53.572;10.174;2022-08-26T09:49:24;32.00;57.60
3298;DHT22;1661;53.572;10.174;2022-08-26T09:52:13;32.10;57.30
3298;DHT22;1661;53.572;10.174;2022-08-26T09:54:42;32.10;57.00
3298;DHT22;1661;53.572;10.174;2022-08-26T09:57:18;32.20;57.30
3298;DHT22;1661;53.572;10.174;2022-08-26T09:59:46;32.30;56.40
3298;DHT22;1661;53.572;10.174;2022-08-26T10:02:28;32.50;56.60
3298;DHT22;1661;53.572;10.174;2022-08-26T10:05:02;32.80;56.60
3298;DHT22;1661;53.572;10.174;2022-08-26T10:07:41;33.10;56.60
3298;DHT22;1661;53.572;10.174;2022-08-26T10:10:13;33.00;54.00
3298;DHT22;1661;53.572;10.174;2022-08-26T10:13:04;32.70;56.20
3298;DHT22;1661;53.572;10.174;2022-08-26T10:15:57;32.80;56.50
3298;DHT22;1661;53.572;10.174;2022-08-26T10:18:29;32.80;55.80
3298;DHT22;1661;53.572;10.174;2022-08-26T10:21:01;32.80;56.00
3298;DHT22;1661;53.572;10.174;2022-08-26T10:23:33;32.80;55.70
3298;DHT22;1661;53.572;10.174;2022-08-26T10:26:06;32.60;56.30
3298;DHT22;1661;53.572;10.174;2022-08-26T10:28:37;32.60;56.50
3298;DHT22;1661;53.572;10.174;2022-08-26T10:31:17;32.70;56.40
3298;DHT22;1661;53.572;10.174;2022-08-26T10:33:45;32.70;54.80
3298;DHT22;1661;53.572;10.174;2022-08-26T10:36:16;32.60;55.40
3298;DHT22;1661;53.572;10.174;2022-08-26T10:38:59;32.70;56.00
3298;DHT22;1661;53.572;10.174;2022-08-26T10:41:31;33.00;55.10
3298;DHT22;1661;53.572;10.174;2022-08-26T10:44:00;33.20;53.80
3298;DHT22;1661;53.572;10.174;2022-08-26T10:46:35;33.40;53.90
3298;DHT22;1661;53.572;10.174;2022-08-26T10:49:08;33.70;53.80
3298;DHT22;1661;53.572;10.174;2022-08-26T10:51:38;33.90;52.00
3298;DHT22;1661;53.572;10.174;2022-08-26T10:54:11;34.30;52.80
3298;DHT22;1661;53.572;10.174;2022-08-26T10:56:45;34.60;51.90
3298;DHT22;1661;53.572;10.174;2022-08-26T10:59:20;34.70;51.10
3298;DHT22;1661;53.572;10.174;2022-08-26T11:01:58;34.90;50.10
3298;DHT22;1661;53.572;10.174;2022-08-26T11:04:47;34.70;49.20
3298;DHT22;1661;53.572;10.174;2022-08-26T11:07:38;34.50;51.90
3298;DHT22;1661;53.572;10.174;2022-08-26T11:10:08;34.80;51.40
3298;DHT22;1661;53.572;10.174;2022-08-26T11:12:48;35.10;50.60
3298;DHT22;1661;53.572;10.174;2022-08-26T11:21:43;35.60;49.40
3298;DHT22;1661;53.572;10.174;2022-08-26T11:24:41;35.60;48.30
3298;DHT22;1661;53.572;10.174;2022-08-26T11:27:10;35.60;49.60
3298;DHT22;1661;53.572;10.174;2022-08-26T11:29:59;35.30;49.90
3298;DHT22;1661;53.572;10.174;2022-08-26T11:32:47;35.00;49.60
3298;DHT22;1661;53.572;10.174;2022-08-26T11:35:45;35.00;50.80
3298;DHT22;1661;53.572;10.174;2022-08-26T11:38:24;34.90;49.80
3298;DHT22;1661;53.572;10.174;2022-08-26T11:41:08;34.90;49.80
3298;DHT22;1661;53.572;10.174;2022-08-26T11:43:37;35.00;49.10
3298;DHT22;1661;53.572;10.174;2022-08-26T11:46:07;35.20;48.90
3298;DHT22;1661;53.572;10.174;2022-08-26T11:48:36;35.30;47.30
3298;DHT22;1661;53.572;10.174;2022-08-26T11:51:05;35.50;48.30
3298;DHT22;1661;53.572;10.174;2022-08-26T11:53:35;35.70;46.90
3298;DHT22;1661;53.572;10.174;2022-08-26T11:56:05;35.80;47.30
3298;DHT22;1661;53.572;10.174;2022-08-26T11:58:33;36.00;47.10
3298;DHT22;1661;53.572;10.174;2022-08-26T12:01:03;36.10;46.80
3298;DHT22;1661;53.572;10.174;2022-08-26T12:03:38;36.10;48.60
3298;DHT22;1661;53.572;10.174;2022-08-26T12:06:11;36.00;47.20
3298;DHT22;1661;53.572;10.174;2022-08-26T12:08:41;36.00;47.00
3298;DHT22;1661;53.572;10.174;2022-08-26T12:11:11;36.10;46.60
3298;DHT22;1661;53.572;10.174;2022-08-26T12:13:39;36.30;47.50
3298;DHT22;1661;53.572;10.174;2022-08-26T12:16:07;36.50;45.00
3298;DHT22;1661;53.572;10.174;2022-08-26T12:18:35;36.50;45.10
3298;DHT22;1661;53.572;10.174;2022-08-26T12:21:11;36.60;45.10
3298;DHT22;1661;53.572;10.174;2022-08-26T12:23:42;36.70;45.50
3298;DHT22;1661;53.572;10.174;2022-08-26T12:26:17;36.80;44.50
3298;DHT22;1661;53.572;10.174;2022-08-26T12:28:48;36.70;44.40
3298;DHT22;1661;53.572;10.174;2022-08-26T12:31:21;36.80;45.00
3298;DHT22;1661;53.572;10.174;2022-08-26T12:33:49;36.80;44.60
3298;DHT22;1661;53.572;10.174;2022-08-26T12:36:24;36.70;44.50
3298;DHT22;1661;53.572;10.174;2022-08-26T12:38:53;36.50;45.40
3298;DHT22;1661;53.572;10.174;2022-08-26T12:41:54;36.60;45.40
3298;DHT22;1661;53.572;10.174;2022-08-26T12:44:32;36.50;43.80
3298;DHT22;1661;53.572;10.174;2022-08-26T12:47:07;36.50;45.20
3298;DHT22;1661;53.572;10.174;2022-08-26T12:49:36;36.30;43.50
3298;DHT22;1661;53.572;10.174;2022-08-26T12:52:05;36.10;44.60
3298;DHT22;1661;53.572;10.174;2022-08-26T12:54:33;36.00;44.50
3298;DHT22;1661;53.572;10.174;2022-08-26T12:57:25;35.80;46.00
3298;DHT22;1661;53.572;10.174;2022-08-26T12:59:52;35.60;46.50
3298;DHT22;1661;53.572;10.174;2022-08-26T13:02:34;35.60;46.90
3298;DHT22;1661;53.572;10.174;2022-08-26T13:05:01;35.40;46.40
3298;DHT22;1661;53.572;10.174;2022-08-26T13:07:28;35.40;47.10
3298;DHT22;1661;53.572;10.174;2022-08-26T13:09:57;35.30;46.30
3298;DHT22;1661;53.572;10.174;2022-08-26T13:12:28;35.40;47.50
3298;DHT22;1661;53.572;10.174;2022-08-26T13:14:56;35.60;46.90
3298;DHT22;1661;53.572;10.174;2022-08-26T13:17:24;35.80;45.60
3298;DHT22;1661;53.572;10.174;2022-08-26T13:19:51;36.00;45.90
3298;DHT22;1661;53.572;10.174;2022-08-26T13:22:21;36.10;45.60
3298;DHT22;1661;53.572;10.174;2022-08-26T13:24:51;36.30;45.00
3298;DHT22;1661;53.572;10.174;2022-08-26T13:27:22;36.50;45.20
3298;DHT22;1661;53.572;10.174;2022-08-26T13:29:50;36.50;44.40
3298;DHT22;1661;53.572;10.174;2022-08-26T13:32:18;36.60;45.20
3298;DHT22;1661;53.572;10.174;2022-08-26T13:34:48;36.00;44.20
3298;DHT22;1661;53.572;10.174;2022-08-26T13:37:16;35.80;47.50
3298;DHT22;1661;53.572;10.174;2022-08-26T13:39:44;35.60;48.50
3298;DHT22;1661;53.572;10.174;2022-08-26T13:42:12;35.10;49.90
3298;DHT22;1661;53.572;10.174;2022-08-26T13:44:40;34.40;51.00
3298;DHT22;1661;53.572;10.174;2022-08-26T13:47:09;34.00;52.50
3298;DHT22;1661;53.572;10.174;2022-08-26T13:49:36;33.60;50.30
3298;DHT22;1661;53.572;10.174;2022-08-26T13:52:03;33.10;51.40
3298;DHT22;1661;53.572;10.174;2022-08-26T13:54:30;32.90;53.60
3298;DHT22;1661;53.572;10.174;2022-08-26T13:56:56;32.70;55.00
3298;DHT22;1661;53.572;10.174;2022-08-26T13:59:23;32.10;54.30
3298;DHT22;1661;53.572;10.174;2022-08-26T14:01:52;31.80;53.30
3298;DHT22;1661;53.572;10.174;2022-08-26T14:04:19;31.60;55.00
3298;DHT22;1661;53.572;10.174;2022-08-26T14:06:45;31.60;58.10
3298;DHT22;1661;53.572;10.174;2022-08-26T14:09:12;31.60;55.50
3298;DHT22;1661;53.572;10.174;2022-08-26T14:11:39;31.70;55.90
3298;DHT22;1661;53.572;10.174;2022-08-26T14:14:05;31.80;58.00
3298;DHT22;1661;53.572;10.174;2022-08-26T14:16:35;31.90;56.60
3298;DHT22;1661;53.572;10.174;2022-08-26T14:19:05;32.00;57.70
3298;DHT22;1661;53.572;10.174;2022-08-26T14:21:35;32.00;55.70
3298;DHT22;1661;53.572;10.174;2022-08-26T14:24:03;32.00;57.30
3298;DHT22;1661;53.572;10.174;2022-08-26T14:26:30;32.10;57.80
3298;DHT22;1661;53.572;10.174;2022-08-26T14:28:57;32.10;57.70
3298;DHT22;1661;53.572;10.174;2022-08-26T14:31:24;32.10;56.30
3298;DHT22;1661;53.572;10.174;2022-08-26T14:33:55;32.00;57.30
3298;DHT22;1661;53.572;10.174;2022-08-26T14:36:23;31.90;58.10
3298;DHT22;1661;53.572;10.174;2022-08-26T14:38:53;31.70;60.20
3298;DHT22;1661;53.572;10.174;2022-08-26T14:41:21;31.90;60.10
3298;DHT22;1661;53.572;10.174;2022-08-26T14:43:51;31.90;59.70
3298;DHT22;1661;53.572;10.174;2022-08-26T14:46:23;31.90;59.90
3298;DHT22;1661;53.572;10.174;2022-08-26T14:48:51;31.90;60.60
3298;DHT22;1661;53.572;10.174;2022-08-26T14:51:17;32.00;59.10
3298;DHT22;1661;53.572;10.174;2022-08-26T14:53:47;31.90;58.50
3298;DHT22;1661;53.572;10.174;2022-08-26T14:56:32;31.90;59.90
3298;DHT22;1661;53.572;10.174;2022-08-26T14:58:59;31.80;57.70
3298;DHT22;1661;53.572;10.174;2022-08-26T15:01:26;31.60;58.30
3298;DHT22;1661;53.572;10.174;2022-08-26T15:03:52;31.50;58.80
3298;DHT22;1661;53.572;10.174;2022-08-26T15:06:20;31.10;60.50
3298;DHT22;1661;53.572;10.174;2022-08-26T15:08:48;31.00;60.80
3298;DHT22;1661;53.572;10.174;2022-08-26T15:11:15;31.00;60.60
3298;DHT22;1661;53.572;10.174;2022-08-26T15:13:42;30.70;59.20
3298;DHT22;1661;53.572;10.174;2022-08-26T15:16:09;30.50;58.90
3298;DHT22;1661;53.572;10.174;2022-08-26T15:18:36;30.40;61.30
3298;DHT22;1661;53.572;10.174;2022-08-26T15:21:05;30.40;60.50
3298;DHT22;1661;53.572;10.174;2022-08-26T15:23:32;30.40;59.70
3298;DHT22;1661;53.572;10.174;2022-08-26T15:26:01;30.20;58.70
3298;DHT22;1661;53.572;10.174;2022-08-26T15:28:28;30.20;58.40
3298;DHT22;1661;53.572;10.174;2022-08-26T15:30:54;30.20;58.90
3298;DHT22;1661;53.572;10.174;2022-08-26T15:33:21;30.20;59.30
3298;DHT22;1661;53.572;10.174;2022-08-26T15:35:48;30.20;58.20
3298;DHT22;1661;53.572;10.174;2022-08-26T15:38:15;30.10;59.50
3298;DHT22;1661;53.572;10.174;2022-08-26T15:40:42;30.20;58.60
3298;DHT22;1661;53.572;10.174;2022-08-26T15:43:10;30.20;59.60
3298;DHT22;1661;53.572;10.174;2022-08-26T15:45:37;30.30;57.60
3298;DHT22;1661;53.572;10.174;2022-08-26T15:48:04;30.30;59.40
3298;DHT22;1661;53.572;10.174;2022-08-26T15:50:31;30.30;59.20
3298;DHT22;1661;53.572;10.174;2022-08-26T15:52:58;30.40;57.60
3298;DHT22;1661;53.572;10.174;2022-08-26T15:55:25;30.30;58.40
3298;DHT22;1661;53.572;10.174;2022-08-26T15:57:52;30.20;56.60
3298;DHT22;1661;53.572;10.174;2022-08-26T16:00:21;30.10;58.30
3298;DHT22;1661;53.572;10.174;2022-08-26T16:02:48;29.80;58.70
3298;DHT22;1661;53.572;10.174;2022-08-26T16:05:15;29.70;60.00
3298;DHT22;1661;53.572;10.174;2022-08-26T16:07:43;29.60;59.90
3298;DHT22;1661;53.572;10.174;2022-08-26T16:10:09;29.60;59.50
3298;DHT22;1661;53.572;10.174;2022-08-26T16:12:36;29.60;60.50